createdAt,value
2023-09-09T00:00:52.405Z,101444.00
2023-09-09T00:03:20.916Z,101445.00
2023-09-09T00:05:47.822Z,101448.00
2023-09-09T00:08:16.772Z,101447.00
2023-09-09T00:10:43.600Z,101447.00
2023-09-09T00:13:11.456Z,101445.00
2023-09-09T00:15:38.770Z,101453.00
2023-09-09T00:18:06.170Z,101447.00
2023-09-09T00:20:38.054Z,101451.00
2023-09-09T00:23:10.845Z,101444.00
2023-09-09T00:25:39.416Z,101446.00
2023-09-09T00:28:08.878Z,101443.00
2023-09-09T00:30:35.800Z,101441.00
2023-09-09T00:33:03.982Z,101434.00
2023-09-09T00:35:33.833Z,101442.00
2023-09-09T00:38:01.538Z,101441.00
2023-09-09T00:40:28.820Z,101448.00
2023-09-09T00:42:55.664Z,101443.00
2023-09-09T00:45:22.460Z,101445.00
2023-09-09T00:47:49.806Z,101442.00
2023-09-09T00:50:17.055Z,101454.00
2023-09-09T00:52:45.007Z,101442.00
2023-09-09T00:55:12.931Z,101446.00
2023-09-09T00:57:39.996Z,101450.00
2023-09-09T01:00:10.643Z,101425.00
2023-09-09T01:02:42.729Z,101445.00
2023-09-09T01:05:11.672Z,101433.00
2023-09-09T01:07:50.147Z,101439.00
2023-09-09T01:10:19.390Z,101433.00
2023-09-09T01:12:47.122Z,101433.00
2023-09-09T01:15:15.741Z,101440.00
2023-09-09T01:17:43.458Z,101430.00
2023-09-09T01:20:16.860Z,101423.00
2023-09-09T01:22:46.057Z,101433.00
2023-09-09T01:25:13.987Z,101430.00
2023-09-09T01:27:41.751Z,101427.00
2023-09-09T01:30:10.372Z,101416.00
2023-09-09T01:32:37.821Z,101427.00
2023-09-09T01:35:05.993Z,101428.00
2023-09-09T01:37:34.033Z,101430.00
2023-09-09T01:40:13.022Z,101423.00
2023-09-09T01:42:41.440Z,101423.00
2023-09-09T01:45:09.152Z,101423.00
2023-09-09T01:47:36.451Z,101421.00
2023-09-09T01:50:04.261Z,101422.00
2023-09-09T01:52:31.454Z,101421.00
2023-09-09T01:54:58.270Z,101422.00
2023-09-09T01:57:27.820Z,101411.00
2023-09-09T01:59:55.371Z,101415.00
2023-09-09T02:02:22.808Z,101417.00
2023-09-09T02:04:50.286Z,101417.00
2023-09-09T02:07:17.171Z,101412.00
2023-09-09T02:09:44.368Z,101408.00
2023-09-09T02:12:11.519Z,101412.00
2023-09-09T02:14:38.398Z,101410.00
2023-09-09T02:17:06.252Z,101411.00
2023-09-09T02:19:33.552Z,101411.00
2023-09-09T02:22:00.410Z,101413.00
2023-09-09T02:24:27.261Z,101418.00
2023-09-09T02:26:54.480Z,101409.00
2023-09-09T02:29:21.472Z,101411.00
2023-09-09T02:31:48.364Z,101418.00
2023-09-09T02:34:15.109Z,101412.00
2023-09-09T02:37:05.369Z,101408.00
2023-09-09T02:39:32.148Z,101412.00
2023-09-09T02:41:58.907Z,101403.00
2023-09-09T02:44:26.148Z,101403.00
2023-09-09T02:46:52.916Z,101407.00
2023-09-09T02:49:20.111Z,101399.00
2023-09-09T02:51:47.324Z,101400.00
2023-09-09T02:54:14.467Z,101398.00
2023-09-09T02:56:41.303Z,101399.00
2023-09-09T02:59:08.473Z,101400.00
2023-09-09T03:01:35.299Z,101402.00
2023-09-09T03:04:02.515Z,101394.00
2023-09-09T03:06:29.367Z,101398.00
2023-09-09T03:08:56.613Z,101391.00
2023-09-09T03:11:23.428Z,101401.00
2023-09-09T03:13:50.249Z,101395.00
2023-09-09T03:16:17.461Z,101399.00
2023-09-09T03:18:44.379Z,101397.00
2023-09-09T03:21:12.448Z,101405.00
2023-09-09T03:23:39.645Z,101407.00
2023-09-09T03:26:06.714Z,101414.00
2023-09-09T03:28:33.532Z,101404.00
2023-09-09T03:31:01.081Z,101405.00
2023-09-09T03:33:28.762Z,101407.00
2023-09-09T03:35:55.781Z,101398.00
2023-09-09T03:38:22.603Z,101405.00
2023-09-09T03:40:49.563Z,101402.00
2023-09-09T03:43:16.474Z,101409.00
2023-09-09T03:45:43.263Z,101407.00
2023-09-09T03:48:10.565Z,101411.00
2023-09-09T03:50:37.469Z,101408.00
2023-09-09T03:53:04.417Z,101414.00
2023-09-09T03:55:33.738Z,101412.00
2023-09-09T03:58:00.518Z,101404.00
2023-09-09T04:00:27.531Z,101410.00
2023-09-09T04:02:54.429Z,101417.00
2023-09-09T04:05:21.276Z,101412.00
2023-09-09T04:07:48.077Z,101416.00
2023-09-09T04:10:14.907Z,101405.00
2023-09-09T04:12:41.853Z,101404.00
2023-09-09T04:15:09.864Z,101407.00
2023-09-09T04:17:36.946Z,101408.00
2023-09-09T04:20:06.571Z,101410.00
2023-09-09T04:22:33.595Z,101402.00
2023-09-09T04:25:00.386Z,101406.00
2023-09-09T04:27:29.169Z,101409.00
2023-09-09T04:29:56.438Z,101399.00
2023-09-09T04:32:23.299Z,101403.00
2023-09-09T04:34:50.102Z,101399.00
2023-09-09T04:37:17.326Z,101407.00
2023-09-09T04:39:44.565Z,101405.00
2023-09-09T04:42:12.511Z,101405.00
2023-09-09T04:44:39.769Z,101398.00
2023-09-09T04:47:06.957Z,101402.00
2023-09-09T04:49:33.778Z,101404.00
2023-09-09T04:52:00.882Z,101398.00
2023-09-09T04:54:27.623Z,101404.00
2023-09-09T04:56:54.436Z,101398.00
2023-09-09T04:59:21.183Z,101405.00
2023-09-09T05:01:48.109Z,101405.00
2023-09-09T05:04:15.078Z,101401.00
2023-09-09T05:06:41.938Z,101407.00
2023-09-09T05:09:08.855Z,101403.00
2023-09-09T05:11:35.694Z,101404.00
2023-09-09T05:14:02.482Z,101413.00
2023-09-09T05:16:30.692Z,101412.00
2023-09-09T05:18:57.709Z,101409.00
2023-09-09T05:21:24.576Z,101412.00
2023-09-09T05:23:51.770Z,101412.00
2023-09-09T05:26:18.540Z,101416.00
2023-09-09T05:28:45.588Z,101410.00
2023-09-09T05:31:14.069Z,101408.00
2023-09-09T05:33:42.833Z,101418.00
2023-09-09T05:36:10.551Z,101410.00
2023-09-09T05:38:37.588Z,101422.00
2023-09-09T05:41:04.405Z,101415.00
2023-09-09T05:43:32.346Z,101412.00
2023-09-09T05:46:01.472Z,101417.00
2023-09-09T05:48:28.906Z,101422.00
2023-09-09T05:50:56.782Z,101422.00
2023-09-09T05:53:24.052Z,101419.00
2023-09-09T05:55:51.501Z,101417.00
2023-09-09T05:58:18.869Z,101420.00
2023-09-09T06:00:46.049Z,101422.00
2023-09-09T06:03:13.283Z,101421.00
2023-09-09T06:05:40.545Z,101421.00
2023-09-09T06:08:07.574Z,101428.00
2023-09-09T06:10:34.514Z,101434.00
2023-09-09T06:13:01.368Z,101431.00
2023-09-09T06:15:28.518Z,101430.00
2023-09-09T06:17:58.135Z,101424.00
2023-09-09T06:20:24.913Z,101428.00
2023-09-09T06:22:52.106Z,101426.00
2023-09-09T06:25:19.217Z,101425.00
2023-09-09T06:27:45.985Z,101423.00
2023-09-09T06:30:12.916Z,101438.00
2023-09-09T06:32:39.954Z,101444.00
2023-09-09T06:35:08.171Z,101441.00
2023-09-09T06:37:35.054Z,101446.00
2023-09-09T06:40:01.986Z,101431.00
2023-09-09T06:42:29.249Z,101439.00
2023-09-09T06:44:56.308Z,101446.00
2023-09-09T06:47:23.140Z,101447.00
2023-09-09T06:49:51.866Z,101434.00
2023-09-09T06:52:18.787Z,101446.00
2023-09-09T06:54:46.037Z,101444.00
2023-09-09T06:57:12.932Z,101454.00
2023-09-09T06:59:41.095Z,101458.00
2023-09-09T07:02:08.136Z,101444.00
2023-09-09T07:04:36.352Z,101455.00
2023-09-09T07:07:12.797Z,101462.00
2023-09-09T07:09:41.489Z,101461.00
2023-09-09T07:12:11.712Z,101448.00
2023-09-09T07:14:41.737Z,101461.00
2023-09-09T07:17:09.344Z,101452.00
2023-09-09T07:19:36.534Z,101453.00
2023-09-09T07:22:03.876Z,101446.00
2023-09-09T07:24:30.719Z,101448.00
2023-09-09T07:27:00.996Z,101451.00
2023-09-09T07:29:28.563Z,101441.00
2023-09-09T07:31:55.778Z,101446.00
2023-09-09T07:34:22.681Z,101451.00
2023-09-09T07:36:49.435Z,101454.00
2023-09-09T07:39:16.712Z,101442.00
2023-09-09T07:41:43.498Z,101449.00
2023-09-09T07:44:10.594Z,101447.00
2023-09-09T07:46:38.472Z,101452.00
2023-09-09T07:49:05.286Z,101445.00
2023-09-09T07:51:32.517Z,101451.00
2023-09-09T07:53:59.715Z,101449.00
2023-09-09T07:56:27.117Z,101457.00
2023-09-09T07:58:54.319Z,101450.00
2023-09-09T08:01:21.182Z,101453.00
2023-09-09T08:03:48.545Z,101453.00
2023-09-09T08:06:15.788Z,101446.00
2023-09-09T08:08:42.996Z,101444.00
2023-09-09T08:11:10.787Z,101447.00
2023-09-09T08:13:38.234Z,101453.00
2023-09-09T08:16:05.833Z,101449.00
2023-09-09T08:18:32.797Z,101456.00
2023-09-09T08:21:00.168Z,101447.00
2023-09-09T08:23:27.485Z,101447.00
2023-09-09T08:25:54.693Z,101445.00
2023-09-09T08:28:21.910Z,101447.00
2023-09-09T08:30:49.153Z,101452.00
2023-09-09T08:33:16.371Z,101454.00
2023-09-09T08:35:44.443Z,101451.00
2023-09-09T08:38:11.218Z,101456.00
2023-09-09T08:41:05.989Z,101458.00
2023-09-09T08:44:19.549Z,101458.00
2023-09-09T08:46:46.344Z,101458.00
2023-09-09T08:49:15.272Z,101449.00
2023-09-09T08:51:51.285Z,101453.00
2023-09-09T08:54:18.329Z,101456.00
2023-09-09T08:56:46.787Z,101452.00
2023-09-09T08:59:14.780Z,101458.00
2023-09-09T09:01:42.818Z,101456.00
2023-09-09T09:04:11.525Z,101463.00
2023-09-09T09:06:39.422Z,101462.00
2023-09-09T09:09:06.617Z,101451.00
2023-09-09T09:11:33.798Z,101458.00
2023-09-09T09:14:09.541Z,101453.00
2023-09-09T09:16:45.326Z,101454.00
2023-09-09T09:19:28.689Z,101455.00
2023-09-09T09:21:57.755Z,101448.00
2023-09-09T09:24:29.282Z,101468.00
2023-09-09T09:26:56.841Z,101456.00
2023-09-09T09:29:23.816Z,101454.00
2023-09-09T09:31:55.698Z,101448.00
2023-09-09T09:34:34.784Z,101458.00
2023-09-09T09:37:17.846Z,101455.00
2023-09-09T09:39:46.561Z,101454.00
2023-09-09T09:42:14.666Z,101447.00
2023-09-09T09:44:41.567Z,101453.00
2023-09-09T09:47:10.270Z,101452.00
2023-09-09T09:49:39.112Z,101440.00
2023-09-09T09:52:08.481Z,101437.00
2023-09-09T09:54:37.584Z,101433.00
2023-09-09T09:57:06.630Z,101442.00
2023-09-09T09:59:36.689Z,101428.00
2023-09-09T10:02:06.786Z,101427.00
2023-09-09T10:04:43.704Z,101427.00
2023-09-09T10:07:20.220Z,101426.00
2023-09-09T10:10:10.774Z,101426.00
2023-09-09T10:12:49.624Z,101422.00
2023-09-09T10:15:22.508Z,101426.00
2023-09-09T10:17:54.206Z,101414.00
2023-09-09T10:20:23.338Z,101418.00
2023-09-09T10:22:51.321Z,101411.00
2023-09-09T10:25:18.750Z,101409.00
2023-09-09T10:27:47.938Z,101410.00
2023-09-09T10:30:17.298Z,101416.00
2023-09-09T10:32:47.848Z,101404.00
2023-09-09T10:35:18.581Z,101411.00
2023-09-09T10:37:47.806Z,101411.00
2023-09-09T10:40:16.152Z,101408.00
2023-09-09T10:42:44.973Z,101408.00
2023-09-09T10:45:34.138Z,101409.00
2023-09-09T10:48:07.784Z,101412.00
2023-09-09T10:50:41.738Z,101419.00
2023-09-09T10:53:30.142Z,101409.00
2023-09-09T10:56:23.965Z,101401.00
2023-09-09T10:58:55.209Z,101401.00
2023-09-09T11:01:27.438Z,101410.00
2023-09-09T11:03:54.641Z,101404.00
2023-09-09T11:06:21.844Z,101406.00
2023-09-09T11:08:49.472Z,101408.00
2023-09-09T11:11:24.159Z,101400.00
2023-09-09T11:14:04.286Z,101392.00
2023-09-09T11:16:43.270Z,101395.00
2023-09-09T11:19:17.608Z,101388.00
2023-09-09T11:21:49.514Z,101379.00
2023-09-09T11:24:16.704Z,101385.00
2023-09-09T11:26:52.124Z,101390.00
2023-09-09T11:29:36.333Z,101395.00
2023-09-09T11:32:09.040Z,101385.00
2023-09-09T11:34:36.502Z,101386.00
2023-09-09T11:37:05.386Z,101380.00
2023-09-09T11:39:42.839Z,101380.00
2023-09-09T11:42:09.729Z,101374.00
2023-09-09T11:44:42.486Z,101378.00
2023-09-09T11:47:11.147Z,101374.00
2023-09-09T11:49:41.648Z,101373.00
2023-09-09T11:52:09.073Z,101375.00
2023-09-09T11:54:36.818Z,101373.00
2023-09-09T11:57:09.177Z,101380.00
2023-09-09T11:59:52.060Z,101367.00
2023-09-09T12:02:26.980Z,101360.00
2023-09-09T12:05:02.890Z,101366.00
2023-09-09T12:07:37.591Z,101362.00
2023-09-09T12:10:14.104Z,101361.00
2023-09-09T12:12:48.838Z,101361.00
2023-09-09T12:15:16.899Z,101352.00
2023-09-09T12:17:44.149Z,101349.00
2023-09-09T12:20:11.604Z,101365.00
2023-09-09T12:22:48.443Z,101357.00
2023-09-09T12:25:36.235Z,101359.00
2023-09-09T12:28:04.540Z,101355.00
2023-09-09T12:30:44.202Z,101357.00
2023-09-09T12:33:16.050Z,101346.00
2023-09-09T12:35:52.028Z,101340.00
2023-09-09T12:38:21.476Z,101352.00
2023-09-09T12:40:54.918Z,101343.00
2023-09-09T12:43:26.341Z,101346.00
2023-09-09T12:45:56.849Z,101346.00
2023-09-09T12:48:23.780Z,101350.00
2023-09-09T12:50:50.586Z,101348.00
2023-09-09T12:53:18.354Z,101345.00
2023-09-09T12:55:45.975Z,101343.00
2023-09-09T12:58:14.876Z,101346.00
2023-09-09T13:00:41.867Z,101343.00
2023-09-09T13:03:10.856Z,101339.00
2023-09-09T13:05:40.011Z,101343.00
2023-09-09T13:08:07.160Z,101340.00
2023-09-09T13:10:33.992Z,101341.00
2023-09-09T13:13:00.912Z,101338.00
2023-09-09T13:15:28.440Z,101340.00
2023-09-09T13:17:55.442Z,101336.00
2023-09-09T13:20:22.713Z,101330.00
2023-09-09T13:22:49.539Z,101328.00
2023-09-09T13:25:16.749Z,101331.00
2023-09-09T13:27:44.445Z,101342.00
2023-09-09T13:30:11.907Z,101331.00
2023-09-09T13:32:40.635Z,101326.00
2023-09-09T13:35:09.464Z,101322.00
2023-09-09T13:37:37.062Z,101329.00
2023-09-09T13:40:04.722Z,101323.00
2023-09-09T13:42:33.203Z,101326.00
2023-09-09T13:45:10.815Z,101326.00
2023-09-09T13:47:39.226Z,101330.00
2023-09-09T13:50:07.959Z,101328.00
2023-09-09T13:52:35.400Z,101326.00
2023-09-09T13:55:04.281Z,101325.00
2023-09-09T13:57:32.028Z,101331.00
2023-09-09T13:59:59.093Z,101329.00
2023-09-09T14:02:27.076Z,101321.00
2023-09-09T14:04:54.477Z,101313.00
2023-09-09T14:07:22.597Z,101307.00
2023-09-09T14:09:50.545Z,101313.00
2023-09-09T14:12:17.734Z,101320.00
2023-09-09T14:14:44.886Z,101319.00
2023-09-09T14:17:12.104Z,101319.00
2023-09-09T14:19:39.818Z,101310.00
2023-09-09T14:22:07.058Z,101319.00
2023-09-09T14:24:34.275Z,101315.00
2023-09-09T14:27:01.473Z,101312.00
2023-09-09T14:29:28.794Z,101308.00
2023-09-09T14:31:55.691Z,101299.00
2023-09-09T14:34:22.896Z,101306.00
2023-09-09T14:36:50.066Z,101306.00
2023-09-09T14:39:16.906Z,101305.00
2023-09-09T14:41:44.218Z,101306.00
2023-09-09T14:44:11.457Z,101293.00
2023-09-09T14:46:38.360Z,101299.00
2023-09-09T14:49:05.587Z,101306.00
2023-09-09T14:51:35.264Z,101300.00
2023-09-09T14:54:03.846Z,101293.00
2023-09-09T14:56:32.340Z,101301.00
2023-09-09T14:58:59.888Z,101298.00
2023-09-09T15:01:27.328Z,101287.00
2023-09-09T15:03:54.642Z,101291.00
2023-09-09T15:06:22.882Z,101293.00
2023-09-09T15:08:52.895Z,101285.00
2023-09-09T15:11:21.287Z,101290.00
2023-09-09T15:13:50.054Z,101276.00
2023-09-09T15:16:20.946Z,101279.00
2023-09-09T15:18:48.385Z,101287.00
2023-09-09T15:21:15.228Z,101286.00
2023-09-09T15:23:42.408Z,101283.00
2023-09-09T15:26:09.646Z,101280.00
2023-09-09T15:28:36.581Z,101275.00
2023-09-09T15:31:06.574Z,101269.00
2023-09-09T15:33:33.992Z,101274.00
2023-09-09T15:36:00.890Z,101281.00
2023-09-09T15:38:28.778Z,101281.00
2023-09-09T15:40:55.803Z,101284.00
2023-09-09T15:43:22.796Z,101274.00
2023-09-09T15:45:50.413Z,101279.00
2023-09-09T15:48:17.851Z,101279.00
2023-09-09T15:50:45.178Z,101285.00
2023-09-09T15:53:12.291Z,101279.00
2023-09-09T15:55:39.155Z,101288.00
2023-09-09T15:58:06.659Z,101275.00
2023-09-09T16:00:33.873Z,101283.00
2023-09-09T16:03:00.834Z,101284.00
2023-09-09T16:05:31.656Z,101275.00
2023-09-09T16:07:59.230Z,101281.00
2023-09-09T16:10:27.146Z,101274.00
2023-09-09T16:12:54.483Z,101273.00
2023-09-09T16:15:21.653Z,101277.00
2023-09-09T16:17:48.876Z,101269.00
2023-09-09T16:20:16.424Z,101271.00
2023-09-09T16:22:44.679Z,101270.00
2023-09-09T16:25:12.416Z,101277.00
2023-09-09T16:27:41.779Z,101271.00
2023-09-09T16:30:10.814Z,101269.00
2023-09-09T16:32:38.222Z,101274.00
2023-09-09T16:35:05.645Z,101272.00
2023-09-09T16:37:32.515Z,101268.00
2023-09-09T16:39:59.711Z,101274.00
2023-09-09T16:42:27.241Z,101271.00
2023-09-09T16:44:54.516Z,101268.00
2023-09-09T16:47:21.719Z,101272.00
2023-09-09T16:49:49.631Z,101264.00
2023-09-09T16:52:16.969Z,101273.00
2023-09-09T16:54:43.880Z,101280.00
2023-09-09T16:57:11.285Z,101272.00
2023-09-09T16:59:40.517Z,101275.00
2023-09-09T17:02:09.098Z,101275.00
2023-09-09T17:04:36.748Z,101278.00
2023-09-09T17:07:03.872Z,101284.00
2023-09-09T17:09:32.443Z,101263.00
2023-09-09T17:11:59.243Z,101278.00
2023-09-09T17:14:26.817Z,101280.00
2023-09-09T17:16:54.116Z,101280.00
2023-09-09T17:19:21.361Z,101280.00
2023-09-09T17:21:48.554Z,101275.00
2023-09-09T17:24:15.319Z,101275.00
2023-09-09T17:26:42.555Z,101280.00
2023-09-09T17:29:09.477Z,101276.00
2023-09-09T17:31:36.519Z,101286.00
2023-09-09T17:34:03.608Z,101290.00
2023-09-09T17:36:31.196Z,101285.00
2023-09-09T17:39:06.249Z,101295.00
2023-09-09T17:41:33.785Z,101297.00
2023-09-09T17:44:01.808Z,101300.00
2023-09-09T17:46:29.324Z,101305.00
2023-09-09T17:48:58.498Z,101305.00
2023-09-09T17:51:30.011Z,101303.00
2023-09-09T17:53:56.961Z,101302.00
2023-09-09T17:56:24.253Z,101302.00
2023-09-09T17:58:53.723Z,101305.00
2023-09-09T18:01:26.230Z,101303.00
2023-09-09T18:03:57.851Z,101306.00
2023-09-09T18:06:25.276Z,101314.00
2023-09-09T18:08:53.292Z,101314.00
2023-09-09T18:11:22.913Z,101311.00
2023-09-09T18:13:50.604Z,101305.00
2023-09-09T18:16:21.833Z,101310.00
2023-09-09T18:18:48.676Z,101300.00
2023-09-09T18:21:16.007Z,101313.00
2023-09-09T18:23:43.213Z,101315.00
2023-09-09T18:26:10.429Z,101310.00
2023-09-09T18:28:37.198Z,101314.00
2023-09-09T18:31:08.044Z,101318.00
2023-09-09T18:33:34.938Z,101311.00
2023-09-09T18:36:02.435Z,101315.00
2023-09-09T18:38:29.802Z,101311.00
2023-09-09T18:40:57.176Z,101310.00
2023-09-09T18:43:24.418Z,101316.00
2023-09-09T18:45:52.353Z,101321.00
2023-09-09T18:48:19.770Z,101312.00
2023-09-09T18:50:47.138Z,101319.00
2023-09-09T18:53:14.735Z,101325.00
2023-09-09T18:55:42.232Z,101319.00
2023-09-09T18:58:09.728Z,101327.00
2023-09-09T19:00:36.943Z,101322.00
2023-09-09T19:03:04.621Z,101324.00
2023-09-09T19:05:35.763Z,101323.00
2023-09-09T19:08:02.713Z,101335.00
2023-09-09T19:10:29.597Z,101337.00
2023-09-09T19:12:56.398Z,101337.00
2023-09-09T19:15:24.531Z,101331.00
2023-09-09T19:17:51.940Z,101336.00
2023-09-09T19:20:19.402Z,101335.00
2023-09-09T19:22:50.437Z,101340.00
2023-09-09T19:25:17.836Z,101334.00
2023-09-09T19:27:48.283Z,101339.00
2023-09-09T19:30:15.209Z,101337.00
2023-09-09T19:32:42.695Z,101330.00
2023-09-09T19:35:09.714Z,101330.00
2023-09-09T19:37:37.775Z,101328.00
2023-09-09T19:40:05.395Z,101336.00
2023-09-09T19:42:32.431Z,101333.00
2023-09-09T19:44:59.852Z,101343.00
2023-09-09T19:47:27.080Z,101338.00
2023-09-09T19:49:54.775Z,101336.00
2023-09-09T19:52:22.163Z,101330.00
2023-09-09T19:54:49.625Z,101328.00
2023-09-09T19:57:16.591Z,101342.00
2023-09-09T19:59:43.573Z,101335.00
2023-09-09T20:02:10.989Z,101334.00
2023-09-09T20:04:38.412Z,101336.00
2023-09-09T20:07:05.596Z,101343.00
2023-09-09T20:09:32.670Z,101338.00
2023-09-09T20:12:03.036Z,101342.00
2023-09-09T20:14:30.332Z,101336.00
2023-09-09T20:16:57.109Z,101332.00
2023-09-09T20:19:24.392Z,101334.00
2023-09-09T20:21:51.659Z,101338.00
2023-09-09T20:24:18.423Z,101335.00
2023-09-09T20:26:45.658Z,101332.00
2023-09-09T20:29:12.836Z,101330.00
2023-09-09T20:31:40.078Z,101329.00
2023-09-09T20:34:07.198Z,101346.00
2023-09-09T20:36:35.296Z,101340.00
2023-09-09T20:39:06.148Z,101332.00
2023-09-09T20:41:33.387Z,101328.00
2023-09-09T20:44:00.829Z,101331.00
2023-09-09T20:46:28.081Z,101331.00
2023-09-09T20:48:55.283Z,101323.00
2023-09-09T20:51:22.533Z,101327.00
2023-09-09T20:53:50.537Z,101330.00
2023-09-09T20:56:18.929Z,101323.00
2023-09-09T20:58:46.181Z,101318.00
2023-09-09T21:01:13.057Z,101325.00
2023-09-09T21:03:40.763Z,101323.00
2023-09-09T21:06:08.370Z,101326.00
2023-09-09T21:08:35.334Z,101326.00
2023-09-09T21:11:02.614Z,101325.00
2023-09-09T21:13:30.007Z,101319.00
2023-09-09T21:15:59.121Z,101320.00
2023-09-09T21:18:26.379Z,101324.00
2023-09-09T21:20:53.200Z,101323.00
2023-09-09T21:23:20.363Z,101328.00
2023-09-09T21:25:47.360Z,101327.00
2023-09-09T21:28:14.593Z,101323.00
2023-09-09T21:30:42.499Z,101315.00
2023-09-09T21:33:09.565Z,101324.00
2023-09-09T21:35:36.468Z,101318.00
2023-09-09T21:38:04.225Z,101319.00
2023-09-09T21:40:31.147Z,101318.00
2023-09-09T21:42:58.346Z,101320.00
2023-09-09T21:45:25.795Z,101321.00
2023-09-09T21:47:53.070Z,101316.00
2023-09-09T21:50:20.569Z,101319.00
2023-09-09T21:52:47.886Z,101311.00
2023-09-09T21:55:15.099Z,101321.00
2023-09-09T21:57:42.370Z,101311.00
2023-09-09T22:00:24.026Z,101317.00
2023-09-09T22:02:51.460Z,101313.00
2023-09-09T22:05:18.983Z,101308.00
2023-09-09T22:07:46.475Z,101308.00
2023-09-09T22:10:15.195Z,101302.00
2023-09-09T22:12:42.622Z,101304.00
2023-09-09T22:15:11.131Z,101305.00
2023-09-09T22:17:39.523Z,101305.00
2023-09-09T22:20:09.460Z,101296.00
2023-09-09T22:22:38.905Z,101302.00
2023-09-09T22:25:14.077Z,101291.00
2023-09-09T22:27:41.118Z,101299.00
2023-09-09T22:30:09.168Z,101301.00
2023-09-09T22:32:36.516Z,101295.00
2023-09-09T22:35:05.755Z,101301.00
2023-09-09T22:37:33.530Z,101294.00
2023-09-09T22:40:00.924Z,101296.00
2023-09-09T22:42:28.157Z,101291.00
2023-09-09T22:44:55.377Z,101286.00
2023-09-09T22:47:23.388Z,101293.00
2023-09-09T22:49:53.909Z,101291.00
2023-09-09T22:52:21.323Z,101303.00
2023-09-09T22:54:49.867Z,101300.00
2023-09-09T22:57:17.194Z,101305.00
2023-09-09T22:59:44.456Z,101289.00
2023-09-09T23:02:11.734Z,101293.00
2023-09-09T23:04:39.171Z,101293.00
2023-09-09T23:07:06.220Z,101289.00
2023-09-09T23:09:33.026Z,101292.00
2023-09-09T23:12:00.871Z,101290.00
2023-09-09T23:14:28.037Z,101290.00
2023-09-09T23:16:55.365Z,101286.00
2023-09-09T23:19:22.616Z,101295.00
2023-09-09T23:21:49.800Z,101289.00
2023-09-09T23:24:16.802Z,101293.00
2023-09-09T23:26:43.675Z,101292.00
2023-09-09T23:29:11.023Z,101286.00
2023-09-09T23:31:39.520Z,101283.00
2023-09-09T23:34:06.889Z,101279.00
2023-09-09T23:36:33.728Z,101287.00
2023-09-09T23:39:07.236Z,101288.00
2023-09-09T23:41:34.480Z,101281.00
2023-09-09T23:44:01.760Z,101278.00
2023-09-09T23:46:30.436Z,101286.00
2023-09-09T23:48:57.966Z,101285.00
2023-09-09T23:51:25.097Z,101281.00
2023-09-09T23:53:53.242Z,101276.00
2023-09-09T23:56:20.984Z,101267.00
2023-09-09T23:58:48.193Z,101265.00
